sensor_id;sensor_type;location;lat;lon;timestamp;P1;durP1;ratioP1;P2;durP2;ratioP2
5823;SDS011;2938;52.254;12.988;2023-05-29T00:00:57;9.55;;;5.90;;
5823;SDS011;2938;52.254;12.988;2023-05-29T00:03:22;11.60;;;5.13;;
5823;SDS011;2938;52.254;12.988;2023-05-29T00:05:47;16.88;;;5.78;;
5823;SDS011;2938;52.254;12.988;2023-05-29T00:08:14;13.55;;;5.25;;
5823;SDS011;2938;52.254;12.988;2023-05-29T00:10:39;8.15;;;5.15;;
5823;SDS011;2938;52.254;12.988;2023-05-29T00:13:05;17.20;;;6.60;;
5823;SDS011;2938;52.254;12.988;2023-05-29T00:15:31;16.30;;;5.78;;
5823;SDS011;2938;52.254;12.988;2023-05-29T00:17:57;14.05;;;5.35;;
5823;SDS011;2938;52.254;12.988;2023-05-29T00:20:22;13.32;;;6.40;;
5823;SDS011;2938;52.254;12.988;2023-05-29T00:22:47;11.25;;;5.57;;
5823;SDS011;2938;52.254;12.988;2023-05-29T00:25:14;15.85;;;5.85;;
5823;SDS011;2938;52.254;12.988;2023-05-29T00:27:40;14.88;;;6.25;;
5823;SDS011;2938;52.254;12.988;2023-05-29T00:30:06;15.45;;;6.18;;
5823;SDS011;2938;52.254;12.988;2023-05-29T00:32:32;17.55;;;5.78;;
5823;SDS011;2938;52.254;12.988;2023-05-29T00:34:57;12.15;;;6.10;;
5823;SDS011;2938;52.254;12.988;2023-05-29T00:37:24;15.95;;;6.15;;
5823;SDS011;2938;52.254;12.988;2023-05-29T00:39:50;11.88;;;5.82;;
5823;SDS011;2938;52.254;12.988;2023-05-29T00:42:16;11.95;;;5.70;;
5823;SDS011;2938;52.254;12.988;2023-05-29T00:44:44;11.82;;;5.28;;
5823;SDS011;2938;52.254;12.988;2023-05-29T00:47:10;15.65;;;6.30;;
5823;SDS011;2938;52.254;12.988;2023-05-29T00:49:35;10.98;;;5.93;;
5823;SDS011;2938;52.254;12.988;2023-05-29T00:52:01;15.73;;;5.30;;
5823;SDS011;2938;52.254;12.988;2023-05-29T00:54:28;10.30;;;5.65;;
5823;SDS011;2938;52.254;12.988;2023-05-29T00:56:54;10.48;;;5.60;;
5823;SDS011;2938;52.254;12.988;2023-05-29T00:59:22;12.63;;;5.97;;
5823;SDS011;2938;52.254;12.988;2023-05-29T01:01:51;14.60;;;5.95;;
5823;SDS011;2938;52.254;12.988;2023-05-29T01:04:16;14.15;;;6.18;;
5823;SDS011;2938;52.254;12.988;2023-05-29T01:06:42;14.43;;;7.07;;
5823;SDS011;2938;52.254;12.988;2023-05-29T01:09:09;11.95;;;6.30;;
5823;SDS011;2938;52.254;12.988;2023-05-29T01:17:24;12.85;;;5.30;;
5823;SDS011;2938;52.254;12.988;2023-05-29T01:20:12;9.40;;;6.13;;
5823;SDS011;2938;52.254;12.988;2023-05-29T01:25:56;15.32;;;5.55;;
5823;SDS011;2938;52.254;12.988;2023-05-29T01:28:32;12.63;;;5.63;;
5823;SDS011;2938;52.254;12.988;2023-05-29T01:33:27;12.25;;;6.53;;
5823;SDS011;2938;52.254;12.988;2023-05-29T01:35:53;21.38;;;7.03;;
5823;SDS011;2938;52.254;12.988;2023-05-29T01:38:18;12.18;;;6.10;;
5823;SDS011;2938;52.254;12.988;2023-05-29T01:40:44;16.25;;;6.25;;
5823;SDS011;2938;52.254;12.988;2023-05-29T01:43:09;12.85;;;6.88;;
5823;SDS011;2938;52.254;12.988;2023-05-29T01:45:35;8.35;;;5.55;;
5823;SDS011;2938;52.254;12.988;2023-05-29T01:48:01;19.83;;;6.43;;
5823;SDS011;2938;52.254;12.988;2023-05-29T01:50:28;11.63;;;5.97;;
5823;SDS011;2938;52.254;12.988;2023-05-29T01:52:54;15.68;;;6.47;;
5823;SDS011;2938;52.254;12.988;2023-05-29T01:55:19;11.10;;;6.05;;
5823;SDS011;2938;52.254;12.988;2023-05-29T01:57:45;14.70;;;6.55;;
5823;SDS011;2938;52.254;12.988;2023-05-29T02:00:10;19.45;;;6.43;;
5823;SDS011;2938;52.254;12.988;2023-05-29T02:02:39;13.93;;;5.68;;
5823;SDS011;2938;52.254;12.988;2023-05-29T02:05:05;14.43;;;7.15;;
5823;SDS011;2938;52.254;12.988;2023-05-29T02:07:32;15.23;;;6.38;;
5823;SDS011;2938;52.254;12.988;2023-05-29T02:09:59;13.15;;;6.80;;
5823;SDS011;2938;52.254;12.988;2023-05-29T02:12:26;10.57;;;5.95;;
5823;SDS011;2938;52.254;12.988;2023-05-29T02:14:51;15.52;;;6.15;;
5823;SDS011;2938;52.254;12.988;2023-05-29T02:17:17;11.85;;;6.25;;
5823;SDS011;2938;52.254;12.988;2023-05-29T02:19:44;11.75;;;6.03;;
5823;SDS011;2938;52.254;12.988;2023-05-29T02:22:10;12.23;;;5.45;;
5823;SDS011;2938;52.254;12.988;2023-05-29T02:24:35;9.43;;;5.80;;
5823;SDS011;2938;52.254;12.988;2023-05-29T02:27:01;15.45;;;5.55;;
5823;SDS011;2938;52.254;12.988;2023-05-29T02:29:29;11.45;;;5.72;;
5823;SDS011;2938;52.254;12.988;2023-05-29T02:31:56;12.63;;;5.60;;
5823;SDS011;2938;52.254;12.988;2023-05-29T02:34:21;12.55;;;5.18;;
5823;SDS011;2938;52.254;12.988;2023-05-29T02:36:50;14.35;;;6.38;;
5823;SDS011;2938;52.254;12.988;2023-05-29T02:39:17;10.88;;;5.70;;
5823;SDS011;2938;52.254;12.988;2023-05-29T02:41:42;10.57;;;5.95;;
5823;SDS011;2938;52.254;12.988;2023-05-29T02:44:08;12.38;;;5.60;;
5823;SDS011;2938;52.254;12.988;2023-05-29T02:46:33;8.20;;;5.47;;
5823;SDS011;2938;52.254;12.988;2023-05-29T02:48:59;12.35;;;6.00;;
5823;SDS011;2938;52.254;12.988;2023-05-29T02:51:26;10.77;;;6.18;;
5823;SDS011;2938;52.254;12.988;2023-05-29T02:53:52;12.05;;;6.60;;
5823;SDS011;2938;52.254;12.988;2023-05-29T02:56:18;16.30;;;6.22;;
5823;SDS011;2938;52.254;12.988;2023-05-29T02:58:43;14.35;;;7.05;;
5823;SDS011;2938;52.254;12.988;2023-05-29T03:01:09;11.10;;;6.95;;
5823;SDS011;2938;52.254;12.988;2023-05-29T03:03:35;11.00;;;5.60;;
5823;SDS011;2938;52.254;12.988;2023-05-29T03:06:00;16.95;;;6.22;;
5823;SDS011;2938;52.254;12.988;2023-05-29T03:08:28;20.88;;;6.82;;
5823;SDS011;2938;52.254;12.988;2023-05-29T03:10:54;16.27;;;7.35;;
5823;SDS011;2938;52.254;12.988;2023-05-29T03:13:21;12.90;;;5.55;;
5823;SDS011;2938;52.254;12.988;2023-05-29T03:15:47;15.35;;;6.10;;
5823;SDS011;2938;52.254;12.988;2023-05-29T03:18:12;13.30;;;5.57;;
5823;SDS011;2938;52.254;12.988;2023-05-29T03:20:38;14.48;;;6.18;;
5823;SDS011;2938;52.254;12.988;2023-05-29T03:23:03;15.63;;;6.65;;
5823;SDS011;2938;52.254;12.988;2023-05-29T03:25:29;11.60;;;6.13;;
5823;SDS011;2938;52.254;12.988;2023-05-29T03:27:55;16.15;;;6.15;;
5823;SDS011;2938;52.254;12.988;2023-05-29T03:30:21;16.90;;;6.38;;
5823;SDS011;2938;52.254;12.988;2023-05-29T03:32:46;18.42;;;6.90;;
5823;SDS011;2938;52.254;12.988;2023-05-29T03:35:11;17.45;;;6.03;;
5823;SDS011;2938;52.254;12.988;2023-05-29T03:37:37;12.73;;;6.07;;
5823;SDS011;2938;52.254;12.988;2023-05-29T03:40:02;13.10;;;6.50;;
5823;SDS011;2938;52.254;12.988;2023-05-29T03:42:29;16.23;;;6.40;;
5823;SDS011;2938;52.254;12.988;2023-05-29T03:44:57;14.45;;;7.15;;
5823;SDS011;2938;52.254;12.988;2023-05-29T03:47:23;17.38;;;6.47;;
5823;SDS011;2938;52.254;12.988;2023-05-29T03:49:48;16.63;;;6.55;;
5823;SDS011;2938;52.254;12.988;2023-05-29T03:52:14;16.00;;;6.55;;
5823;SDS011;2938;52.254;12.988;2023-05-29T03:54:41;12.52;;;5.93;;
5823;SDS011;2938;52.254;12.988;2023-05-29T03:57:08;11.43;;;7.07;;
5823;SDS011;2938;52.254;12.988;2023-05-29T03:59:33;13.50;;;6.57;;
5823;SDS011;2938;52.254;12.988;2023-05-29T04:02:00;18.27;;;7.50;;
5823;SDS011;2938;52.254;12.988;2023-05-29T04:04:25;15.23;;;6.43;;
5823;SDS011;2938;52.254;12.988;2023-05-29T04:06:51;15.20;;;7.63;;
5823;SDS011;2938;52.254;12.988;2023-05-29T04:09:17;18.30;;;7.15;;
5823;SDS011;2938;52.254;12.988;2023-05-29T04:11:43;11.57;;;6.68;;
5823;SDS011;2938;52.254;12.988;2023-05-29T04:14:09;12.30;;;6.30;;
5823;SDS011;2938;52.254;12.988;2023-05-29T04:16:36;12.50;;;6.68;;
5823;SDS011;2938;52.254;12.988;2023-05-29T04:19:01;11.40;;;5.78;;
5823;SDS011;2938;52.254;12.988;2023-05-29T04:21:27;7.55;;;5.28;;
5823;SDS011;2938;52.254;12.988;2023-05-29T04:23:54;19.13;;;6.25;;
5823;SDS011;2938;52.254;12.988;2023-05-29T04:26:21;15.02;;;6.63;;
5823;SDS011;2938;52.254;12.988;2023-05-29T04:28:51;12.73;;;6.22;;
5823;SDS011;2938;52.254;12.988;2023-05-29T04:31:26;10.13;;;5.45;;
5823;SDS011;2938;52.254;12.988;2023-05-29T04:34:09;22.48;;;6.90;;
5823;SDS011;2938;52.254;12.988;2023-05-29T04:36:35;9.80;;;5.55;;
5823;SDS011;2938;52.254;12.988;2023-05-29T04:39:04;13.75;;;5.63;;
5823;SDS011;2938;52.254;12.988;2023-05-29T04:41:30;16.33;;;6.70;;
5823;SDS011;2938;52.254;12.988;2023-05-29T04:43:56;13.60;;;6.40;;
5823;SDS011;2938;52.254;12.988;2023-05-29T04:46:22;12.75;;;6.32;;
5823;SDS011;2938;52.254;12.988;2023-05-29T04:48:49;10.90;;;5.53;;
5823;SDS011;2938;52.254;12.988;2023-05-29T04:51:18;11.23;;;5.93;;
5823;SDS011;2938;52.254;12.988;2023-05-29T04:53:45;9.40;;;5.65;;
5823;SDS011;2938;52.254;12.988;2023-05-29T04:56:16;13.40;;;5.50;;
5823;SDS011;2938;52.254;12.988;2023-05-29T04:58:41;10.85;;;6.00;;
5823;SDS011;2938;52.254;12.988;2023-05-29T05:01:07;11.95;;;4.82;;
5823;SDS011;2938;52.254;12.988;2023-05-29T05:03:39;11.95;;;6.30;;
5823;SDS011;2938;52.254;12.988;2023-05-29T05:06:06;11.52;;;4.85;;
5823;SDS011;2938;52.254;12.988;2023-05-29T05:08:33;9.85;;;4.88;;
5823;SDS011;2938;52.254;12.988;2023-05-29T05:11:02;8.50;;;5.70;;
5823;SDS011;2938;52.254;12.988;2023-05-29T05:13:27;12.27;;;4.75;;
5823;SDS011;2938;52.254;12.988;2023-05-29T05:15:53;11.82;;;5.13;;
5823;SDS011;2938;52.254;12.988;2023-05-29T05:18:19;10.23;;;4.75;;
5823;SDS011;2938;52.254;12.988;2023-05-29T05:20:50;9.75;;;4.65;;
5823;SDS011;2938;52.254;12.988;2023-05-29T05:23:17;8.13;;;4.88;;
5823;SDS011;2938;52.254;12.988;2023-05-29T05:25:42;10.73;;;5.75;;
5823;SDS011;2938;52.254;12.988;2023-05-29T05:28:08;9.00;;;4.13;;
5823;SDS011;2938;52.254;12.988;2023-05-29T05:30:33;9.05;;;4.13;;
5823;SDS011;2938;52.254;12.988;2023-05-29T05:32:59;9.35;;;4.75;;
5823;SDS011;2938;52.254;12.988;2023-05-29T05:35:24;6.57;;;4.30;;
5823;SDS011;2938;52.254;12.988;2023-05-29T05:37:50;6.68;;;4.47;;
5823;SDS011;2938;52.254;12.988;2023-05-29T05:40:16;10.93;;;4.90;;
5823;SDS011;2938;52.254;12.988;2023-05-29T05:42:41;4.88;;;3.78;;
5823;SDS011;2938;52.254;12.988;2023-05-29T05:45:07;9.90;;;4.25;;
5823;SDS011;2938;52.254;12.988;2023-05-29T05:47:33;9.02;;;4.45;;
5823;SDS011;2938;52.254;12.988;2023-05-29T05:49:59;6.32;;;3.92;;
5823;SDS011;2938;52.254;12.988;2023-05-29T05:52:24;5.40;;;3.78;;
5823;SDS011;2938;52.254;12.988;2023-05-29T05:54:51;6.28;;;3.97;;
5823;SDS011;2938;52.254;12.988;2023-05-29T05:57:16;10.50;;;4.53;;
5823;SDS011;2938;52.254;12.988;2023-05-29T05:59:42;9.25;;;4.97;;
5823;SDS011;2938;52.254;12.988;2023-05-29T06:02:07;10.43;;;4.07;;
5823;SDS011;2938;52.254;12.988;2023-05-29T06:04:32;6.70;;;3.78;;
5823;SDS011;2938;52.254;12.988;2023-05-29T06:06:58;7.60;;;3.97;;
5823;SDS011;2938;52.254;12.988;2023-05-29T06:09:23;7.80;;;4.80;;
5823;SDS011;2938;52.254;12.988;2023-05-29T06:11:50;16.60;;;5.20;;
5823;SDS011;2938;52.254;12.988;2023-05-29T06:14:15;5.85;;;4.05;;
5823;SDS011;2938;52.254;12.988;2023-05-29T06:16:41;6.63;;;3.58;;
5823;SDS011;2938;52.254;12.988;2023-05-29T06:19:07;11.30;;;3.58;;
5823;SDS011;2938;52.254;12.988;2023-05-29T06:21:33;8.15;;;4.13;;
5823;SDS011;2938;52.254;12.988;2023-05-29T06:23:59;5.90;;;3.83;;
5823;SDS011;2938;52.254;12.988;2023-05-29T06:26:25;13.20;;;4.30;;
5823;SDS011;2938;52.254;12.988;2023-05-29T06:28:51;6.43;;;3.90;;
5823;SDS011;2938;52.254;12.988;2023-05-29T06:31:17;5.72;;;4.00;;
5823;SDS011;2938;52.254;12.988;2023-05-29T06:33:42;7.93;;;3.95;;
5823;SDS011;2938;52.254;12.988;2023-05-29T06:36:08;5.80;;;3.30;;
5823;SDS011;2938;52.254;12.988;2023-05-29T06:38:33;7.57;;;4.18;;
5823;SDS011;2938;52.254;12.988;2023-05-29T06:40:59;6.25;;;3.35;;
5823;SDS011;2938;52.254;12.988;2023-05-29T06:43:24;6.55;;;3.92;;
5823;SDS011;2938;52.254;12.988;2023-05-29T06:45:50;6.55;;;3.97;;
5823;SDS011;2938;52.254;12.988;2023-05-29T06:48:16;5.50;;;3.67;;
5823;SDS011;2938;52.254;12.988;2023-05-29T06:50:48;4.93;;;3.63;;
5823;SDS011;2938;52.254;12.988;2023-05-29T06:53:14;7.53;;;3.85;;
5823;SDS011;2938;52.254;12.988;2023-05-29T06:55:39;7.07;;;3.22;;
5823;SDS011;2938;52.254;12.988;2023-05-29T06:58:05;7.05;;;2.72;;
5823;SDS011;2938;52.254;12.988;2023-05-29T07:00:31;9.25;;;2.88;;
5823;SDS011;2938;52.254;12.988;2023-05-29T07:02:57;5.53;;;3.08;;
5823;SDS011;2938;52.254;12.988;2023-05-29T07:05:22;5.88;;;3.22;;
5823;SDS011;2938;52.254;12.988;2023-05-29T07:07:48;4.32;;;2.90;;
5823;SDS011;2938;52.254;12.988;2023-05-29T07:10:13;3.63;;;3.03;;
5823;SDS011;2938;52.254;12.988;2023-05-29T07:12:38;4.95;;;3.88;;
5823;SDS011;2938;52.254;12.988;2023-05-29T07:15:04;5.50;;;3.38;;
5823;SDS011;2938;52.254;12.988;2023-05-29T07:17:30;4.88;;;3.03;;
5823;SDS011;2938;52.254;12.988;2023-05-29T07:19:57;4.22;;;2.88;;
5823;SDS011;2938;52.254;12.988;2023-05-29T07:22:24;5.50;;;3.42;;
5823;SDS011;2938;52.254;12.988;2023-05-29T07:24:53;5.00;;;2.58;;
5823;SDS011;2938;52.254;12.988;2023-05-29T07:27:18;6.50;;;3.65;;
5823;SDS011;2938;52.254;12.988;2023-05-29T07:29:44;7.72;;;3.10;;
5823;SDS011;2938;52.254;12.988;2023-05-29T07:32:10;4.68;;;3.15;;
5823;SDS011;2938;52.254;12.988;2023-05-29T07:34:36;4.97;;;2.85;;
5823;SDS011;2938;52.254;12.988;2023-05-29T07:37:05;11.65;;;2.85;;
5823;SDS011;2938;52.254;12.988;2023-05-29T07:39:32;4.30;;;2.45;;
5823;SDS011;2938;52.254;12.988;2023-05-29T07:41:59;2.60;;;2.40;;
5823;SDS011;2938;52.254;12.988;2023-05-29T07:44:26;4.57;;;3.00;;
5823;SDS011;2938;52.254;12.988;2023-05-29T07:46:51;7.15;;;3.90;;
5823;SDS011;2938;52.254;12.988;2023-05-29T07:49:17;4.78;;;2.90;;
5823;SDS011;2938;52.254;12.988;2023-05-29T07:51:43;3.90;;;2.38;;
5823;SDS011;2938;52.254;12.988;2023-05-29T07:56:47;4.85;;;2.78;;
5823;SDS011;2938;52.254;12.988;2023-05-29T07:59:29;3.85;;;2.45;;
5823;SDS011;2938;52.254;12.988;2023-05-29T08:01:57;8.02;;;2.97;;
5823;SDS011;2938;52.254;12.988;2023-05-29T08:04:24;4.15;;;2.80;;
5823;SDS011;2938;52.254;12.988;2023-05-29T08:06:55;4.65;;;3.78;;
5823;SDS011;2938;52.254;12.988;2023-05-29T08:09:33;4.00;;;2.42;;
5823;SDS011;2938;52.254;12.988;2023-05-29T08:11:58;6.47;;;3.33;;
5823;SDS011;2938;52.254;12.988;2023-05-29T08:14:28;5.07;;;2.58;;
5823;SDS011;2938;52.254;12.988;2023-05-29T08:17:00;3.67;;;2.67;;
5823;SDS011;2938;52.254;12.988;2023-05-29T08:22:45;4.53;;;2.40;;
5823;SDS011;2938;52.254;12.988;2023-05-29T08:25:10;3.95;;;2.88;;
5823;SDS011;2938;52.254;12.988;2023-05-29T08:27:36;3.03;;;2.08;;
5823;SDS011;2938;52.254;12.988;2023-05-29T08:30:01;4.68;;;2.88;;
5823;SDS011;2938;52.254;12.988;2023-05-29T08:32:30;6.63;;;3.35;;
5823;SDS011;2938;52.254;12.988;2023-05-29T08:34:56;8.85;;;3.22;;
5823;SDS011;2938;52.254;12.988;2023-05-29T08:37:21;5.18;;;2.88;;
5823;SDS011;2938;52.254;12.988;2023-05-29T08:39:52;2.47;;;2.13;;
5823;SDS011;2938;52.254;12.988;2023-05-29T08:42:21;4.75;;;3.08;;
5823;SDS011;2938;52.254;12.988;2023-05-29T08:44:54;7.22;;;3.22;;
5823;SDS011;2938;52.254;12.988;2023-05-29T08:47:23;6.97;;;3.15;;
5823;SDS011;2938;52.254;12.988;2023-05-29T08:49:52;6.72;;;3.80;;
5823;SDS011;2938;52.254;12.988;2023-05-29T08:52:24;7.05;;;3.03;;
5823;SDS011;2938;52.254;12.988;2023-05-29T08:54:51;4.30;;;3.60;;
5823;SDS011;2938;52.254;12.988;2023-05-29T08:57:19;4.00;;;2.80;;
5823;SDS011;2938;52.254;12.988;2023-05-29T08:59:50;5.75;;;2.50;;
5823;SDS011;2938;52.254;12.988;2023-05-29T09:02:17;5.43;;;3.55;;
5823;SDS011;2938;52.254;12.988;2023-05-29T09:04:42;5.72;;;3.30;;
5823;SDS011;2938;52.254;12.988;2023-05-29T09:07:15;2.80;;;2.40;;
5823;SDS011;2938;52.254;12.988;2023-05-29T09:09:42;3.58;;;2.40;;
5823;SDS011;2938;52.254;12.988;2023-05-29T09:12:11;6.55;;;3.17;;
5823;SDS011;2938;52.254;12.988;2023-05-29T09:14:44;7.85;;;3.70;;
5823;SDS011;2938;52.254;12.988;2023-05-29T09:17:10;4.72;;;2.72;;
5823;SDS011;2938;52.254;12.988;2023-05-29T09:19:36;9.40;;;2.85;;
5823;SDS011;2938;52.254;12.988;2023-05-29T09:22:07;5.45;;;2.50;;
5823;SDS011;2938;52.254;12.988;2023-05-29T09:24:35;5.63;;;3.33;;
5823;SDS011;2938;52.254;12.988;2023-05-29T09:27:01;8.10;;;2.92;;
5823;SDS011;2938;52.254;12.988;2023-05-29T09:29:38;9.98;;;3.67;;
5823;SDS011;2938;52.254;12.988;2023-05-29T09:32:09;8.13;;;3.20;;
5823;SDS011;2938;52.254;12.988;2023-05-29T09:34:35;4.55;;;3.13;;
5823;SDS011;2938;52.254;12.988;2023-05-29T09:37:05;6.10;;;3.13;;
5823;SDS011;2938;52.254;12.988;2023-05-29T09:42:07;5.50;;;3.03;;
5823;SDS011;2938;52.254;12.988;2023-05-29T09:44:36;6.63;;;3.47;;
5823;SDS011;2938;52.254;12.988;2023-05-29T09:47:03;5.45;;;3.13;;
5823;SDS011;2938;52.254;12.988;2023-05-29T09:49:32;4.32;;;3.08;;
5823;SDS011;2938;52.254;12.988;2023-05-29T09:52:03;4.47;;;3.15;;
5823;SDS011;2938;52.254;12.988;2023-05-29T09:54:29;10.52;;;2.70;;
5823;SDS011;2938;52.254;12.988;2023-05-29T09:56:54;6.13;;;3.50;;
5823;SDS011;2938;52.254;12.988;2023-05-29T09:59:21;7.72;;;3.38;;
5823;SDS011;2938;52.254;12.988;2023-05-29T10:01:59;6.55;;;2.53;;
5823;SDS011;2938;52.254;12.988;2023-05-29T10:04:30;6.55;;;3.17;;
5823;SDS011;2938;52.254;12.988;2023-05-29T10:06:57;5.43;;;2.55;;
5823;SDS011;2938;52.254;12.988;2023-05-29T10:09:26;7.25;;;3.58;;
5823;SDS011;2938;52.254;12.988;2023-05-29T10:11:53;5.97;;;3.40;;
5823;SDS011;2938;52.254;12.988;2023-05-29T10:14:23;12.52;;;3.28;;
5823;SDS011;2938;52.254;12.988;2023-05-29T10:16:50;4.68;;;3.03;;
5823;SDS011;2938;52.254;12.988;2023-05-29T10:19:19;7.25;;;3.25;;
5823;SDS011;2938;52.254;12.988;2023-05-29T10:21:48;4.85;;;3.05;;
5823;SDS011;2938;52.254;12.988;2023-05-29T10:24:14;8.77;;;3.40;;
5823;SDS011;2938;52.254;12.988;2023-05-29T10:26:40;3.75;;;3.05;;
5823;SDS011;2938;52.254;12.988;2023-05-29T10:29:13;10.38;;;4.20;;
5823;SDS011;2938;52.254;12.988;2023-05-29T10:37:35;8.18;;;4.25;;
5823;SDS011;2938;52.254;12.988;2023-05-29T10:40:26;8.27;;;4.50;;
5823;SDS011;2938;52.254;12.988;2023-05-29T10:42:53;5.50;;;3.70;;
5823;SDS011;2938;52.254;12.988;2023-05-29T10:53:09;6.85;;;3.83;;
5823;SDS011;2938;52.254;12.988;2023-05-29T10:55:39;8.43;;;3.75;;
5823;SDS011;2938;52.254;12.988;2023-05-29T10:58:09;5.10;;;3.58;;
5823;SDS011;2938;52.254;12.988;2023-05-29T11:03:15;6.95;;;3.88;;
5823;SDS011;2938;52.254;12.988;2023-05-29T11:05:56;6.63;;;3.88;;
5823;SDS011;2938;52.254;12.988;2023-05-29T11:08:28;7.20;;;3.83;;
5823;SDS011;2938;52.254;12.988;2023-05-29T11:11:03;7.55;;;5.05;;
5823;SDS011;2938;52.254;12.988;2023-05-29T11:16:05;7.50;;;4.60;;
5823;SDS011;2938;52.254;12.988;2023-05-29T11:18:44;7.10;;;4.43;;
5823;SDS011;2938;52.254;12.988;2023-05-29T11:21:33;6.93;;;3.45;;
5823;SDS011;2938;52.254;12.988;2023-05-29T11:23:59;5.75;;;4.10;;
5823;SDS011;2938;52.254;12.988;2023-05-29T11:26:30;6.32;;;3.97;;
5823;SDS011;2938;52.254;12.988;2023-05-29T11:28:59;12.85;;;4.45;;
5823;SDS011;2938;52.254;12.988;2023-05-29T11:31:26;6.07;;;3.55;;
5823;SDS011;2938;52.254;12.988;2023-05-29T11:33:53;8.68;;;3.97;;
5823;SDS011;2938;52.254;12.988;2023-05-29T11:36:21;6.40;;;4.07;;
5823;SDS011;2938;52.254;12.988;2023-05-29T11:38:48;6.65;;;3.72;;
5823;SDS011;2938;52.254;12.988;2023-05-29T11:41:17;6.85;;;4.13;;
5823;SDS011;2938;52.254;12.988;2023-05-29T11:43:43;4.85;;;3.28;;
5823;SDS011;2938;52.254;12.988;2023-05-29T11:46:15;8.85;;;4.00;;
5823;SDS011;2938;52.254;12.988;2023-05-29T11:48:46;8.02;;;3.67;;
5823;SDS011;2938;52.254;12.988;2023-05-29T11:51:21;5.68;;;3.42;;
5823;SDS011;2938;52.254;12.988;2023-05-29T11:53:47;8.52;;;4.20;;
5823;SDS011;2938;52.254;12.988;2023-05-29T11:56:13;5.47;;;4.43;;
5823;SDS011;2938;52.254;12.988;2023-05-29T11:58:39;7.22;;;4.30;;
5823;SDS011;2938;52.254;12.988;2023-05-29T12:01:05;6.53;;;3.58;;
5823;SDS011;2938;52.254;12.988;2023-05-29T12:03:40;10.30;;;4.78;;
5823;SDS011;2938;52.254;12.988;2023-05-29T12:06:07;5.07;;;3.72;;
5823;SDS011;2938;52.254;12.988;2023-05-29T12:08:35;7.75;;;3.97;;
5823;SDS011;2938;52.254;12.988;2023-05-29T12:11:02;7.05;;;3.55;;
5823;SDS011;2938;52.254;12.988;2023-05-29T12:13:28;5.50;;;3.63;;
5823;SDS011;2938;52.254;12.988;2023-05-29T12:15:55;7.63;;;4.35;;
5823;SDS011;2938;52.254;12.988;2023-05-29T12:18:22;7.22;;;3.95;;
5823;SDS011;2938;52.254;12.988;2023-05-29T12:20:47;5.60;;;3.70;;
5823;SDS011;2938;52.254;12.988;2023-05-29T12:23:16;9.95;;;3.60;;
5823;SDS011;2938;52.254;12.988;2023-05-29T12:25:45;6.10;;;2.63;;
5823;SDS011;2938;52.254;12.988;2023-05-29T12:28:15;9.40;;;4.20;;
5823;SDS011;2938;52.254;12.988;2023-05-29T12:30:45;4.32;;;3.58;;
5823;SDS011;2938;52.254;12.988;2023-05-29T12:36:18;5.97;;;3.22;;
5823;SDS011;2938;52.254;12.988;2023-05-29T12:38:47;6.95;;;3.78;;
5823;SDS011;2938;52.254;12.988;2023-05-29T12:41:29;7.25;;;3.35;;
5823;SDS011;2938;52.254;12.988;2023-05-29T12:44:00;5.38;;;3.60;;
5823;SDS011;2938;52.254;12.988;2023-05-29T12:46:34;17.10;;;3.57;;
5823;SDS011;2938;52.254;12.988;2023-05-29T12:49:15;6.82;;;3.20;;
5823;SDS011;2938;52.254;12.988;2023-05-29T12:51:42;12.25;;;3.70;;
5823;SDS011;2938;52.254;12.988;2023-05-29T12:54:15;4.68;;;3.45;;
5823;SDS011;2938;52.254;12.988;2023-05-29T12:56:41;4.60;;;3.20;;
5823;SDS011;2938;52.254;12.988;2023-05-29T12:59:07;7.05;;;3.72;;
5823;SDS011;2938;52.254;12.988;2023-05-29T13:01:33;4.10;;;3.17;;
5823;SDS011;2938;52.254;12.988;2023-05-29T13:04:00;8.48;;;3.30;;
5823;SDS011;2938;52.254;12.988;2023-05-29T13:06:32;9.18;;;4.47;;
5823;SDS011;2938;52.254;12.988;2023-05-29T13:08:58;9.50;;;3.80;;
5823;SDS011;2938;52.254;12.988;2023-05-29T13:11:24;4.32;;;2.83;;
5823;SDS011;2938;52.254;12.988;2023-05-29T13:13:50;7.75;;;3.53;;
5823;SDS011;2938;52.254;12.988;2023-05-29T13:16:20;4.80;;;3.00;;
5823;SDS011;2938;52.254;12.988;2023-05-29T13:18:46;9.27;;;3.33;;
5823;SDS011;2938;52.254;12.988;2023-05-29T13:21:11;7.93;;;3.17;;
5823;SDS011;2938;52.254;12.988;2023-05-29T13:23:37;4.88;;;2.92;;
5823;SDS011;2938;52.254;12.988;2023-05-29T13:26:03;13.07;;;4.13;;
5823;SDS011;2938;52.254;12.988;2023-05-29T13:28:31;5.03;;;3.67;;
5823;SDS011;2938;52.254;12.988;2023-05-29T13:31:02;12.68;;;4.78;;
5823;SDS011;2938;52.254;12.988;2023-05-29T13:33:28;6.15;;;3.55;;
5823;SDS011;2938;52.254;12.988;2023-05-29T13:36:21;9.40;;;3.13;;
5823;SDS011;2938;52.254;12.988;2023-05-29T13:38:54;8.75;;;3.35;;
5823;SDS011;2938;52.254;12.988;2023-05-29T13:41:29;6.57;;;3.03;;
5823;SDS011;2938;52.254;12.988;2023-05-29T13:43:55;4.82;;;2.72;;
5823;SDS011;2938;52.254;12.988;2023-05-29T13:46:27;6.05;;;3.22;;
5823;SDS011;2938;52.254;12.988;2023-05-29T13:48:52;4.78;;;2.55;;
5823;SDS011;2938;52.254;12.988;2023-05-29T13:51:41;6.97;;;3.70;;
5823;SDS011;2938;52.254;12.988;2023-05-29T13:54:06;5.45;;;2.90;;
5823;SDS011;2938;52.254;12.988;2023-05-29T13:56:32;6.97;;;3.43;;
5823;SDS011;2938;52.254;12.988;2023-05-29T13:59:06;9.10;;;3.33;;
5823;SDS011;2938;52.254;12.988;2023-05-29T14:01:52;6.60;;;3.53;;
5823;SDS011;2938;52.254;12.988;2023-05-29T14:04:24;8.45;;;3.33;;
5823;SDS011;2938;52.254;12.988;2023-05-29T14:06:58;6.40;;;2.85;;
5823;SDS011;2938;52.254;12.988;2023-05-29T14:09:23;7.78;;;3.03;;
5823;SDS011;2938;52.254;12.988;2023-05-29T14:11:54;10.40;;;3.78;;
5823;SDS011;2938;52.254;12.988;2023-05-29T14:14:21;9.43;;;3.38;;
5823;SDS011;2938;52.254;12.988;2023-05-29T14:16:46;5.85;;;2.85;;
5823;SDS011;2938;52.254;12.988;2023-05-29T14:19:15;7.07;;;3.03;;
5823;SDS011;2938;52.254;12.988;2023-05-29T14:21:40;4.88;;;3.03;;
5823;SDS011;2938;52.254;12.988;2023-05-29T14:24:06;4.05;;;2.33;;
5823;SDS011;2938;52.254;12.988;2023-05-29T14:26:32;8.85;;;3.35;;
5823;SDS011;2938;52.254;12.988;2023-05-29T14:28:58;6.00;;;2.80;;
5823;SDS011;2938;52.254;12.988;2023-05-29T14:31:24;3.63;;;2.53;;
5823;SDS011;2938;52.254;12.988;2023-05-29T14:33:50;6.38;;;3.22;;
5823;SDS011;2938;52.254;12.988;2023-05-29T14:36:15;7.38;;;3.25;;
5823;SDS011;2938;52.254;12.988;2023-05-29T14:38:41;10.00;;;3.72;;
5823;SDS011;2938;52.254;12.988;2023-05-29T14:41:08;5.60;;;2.50;;
5823;SDS011;2938;52.254;12.988;2023-05-29T14:43:34;6.40;;;2.80;;
5823;SDS011;2938;52.254;12.988;2023-05-29T14:46:00;7.00;;;3.67;;
5823;SDS011;2938;52.254;12.988;2023-05-29T14:48:26;6.38;;;3.05;;
5823;SDS011;2938;52.254;12.988;2023-05-29T14:50:51;6.25;;;3.50;;
5823;SDS011;2938;52.254;12.988;2023-05-29T14:53:16;6.55;;;3.22;;
5823;SDS011;2938;52.254;12.988;2023-05-29T14:55:45;6.70;;;3.10;;
5823;SDS011;2938;52.254;12.988;2023-05-29T14:58:10;12.18;;;3.72;;
5823;SDS011;2938;52.254;12.988;2023-05-29T15:00:37;7.03;;;2.75;;
5823;SDS011;2938;52.254;12.988;2023-05-29T15:03:03;5.63;;;3.00;;
5823;SDS011;2938;52.254;12.988;2023-05-29T15:05:29;4.40;;;2.75;;
5823;SDS011;2938;52.254;12.988;2023-05-29T15:07:54;3.47;;;2.47;;
5823;SDS011;2938;52.254;12.988;2023-05-29T15:10:22;6.18;;;3.38;;
5823;SDS011;2938;52.254;12.988;2023-05-29T15:12:51;5.22;;;3.28;;
5823;SDS011;2938;52.254;12.988;2023-05-29T15:15:22;6.15;;;3.13;;
5823;SDS011;2938;52.254;12.988;2023-05-29T15:17:53;7.82;;;3.20;;
5823;SDS011;2938;52.254;12.988;2023-05-29T15:20:39;10.20;;;2.78;;
5823;SDS011;2938;52.254;12.988;2023-05-29T15:23:05;8.32;;;3.10;;
5823;SDS011;2938;52.254;12.988;2023-05-29T15:25:31;5.72;;;2.60;;
5823;SDS011;2938;52.254;12.988;2023-05-29T15:27:56;6.40;;;2.67;;
5823;SDS011;2938;52.254;12.988;2023-05-29T15:30:23;6.47;;;3.17;;
5823;SDS011;2938;52.254;12.988;2023-05-29T15:32:52;7.97;;;2.63;;
5823;SDS011;2938;52.254;12.988;2023-05-29T15:35:18;7.20;;;2.83;;
5823;SDS011;2938;52.254;12.988;2023-05-29T15:37:44;6.13;;;2.72;;
5823;SDS011;2938;52.254;12.988;2023-05-29T15:40:12;5.40;;;2.83;;